Time;durP1;ratioP1;P1;durP2;ratioP2;P2;SDS_P1;SDS_P2;PMS_P1;PMS_P2;Temp;Humidity;BMP_temperature;BMP_pressure;BME280_temperature;BME280_humidity;BME280_pressure;Samples;Min_cycle;Max_cycle;Signal;HPM_P1;HPM_P2
2021/12/01 00:00:20;;;;;;;37.00;13.05;;;7.60;99.90;;;;;;4972207;28;20054;-65
2021/12/01 00:02:52;;;;;;;34.30;13.18;;;7.60;99.90;;;;;;4958994;28;20039;-65
2021/12/01 00:05:23;;;;;;;41.33;13.90;;;7.70;99.90;;;;;;4972037;28;20380;-65
2021/12/01 00:07:50;;;;;;;35.10;13.85;;;7.80;99.90;;;;;;4967578;28;20120;-65
2021/12/01 00:10:17;;;;;;;38.95;14.23;;;7.80;99.90;;;;;;4972285;28;20140;-65
2021/12/01 00:12:44;;;;;;;41.30;15.30;;;7.80;99.90;;;;;;4970169;28;20051;-65
2021/12/01 00:15:10;;;;;;;78.95;16.48;;;7.80;99.90;;;;;;4990177;28;20097;-66
2021/12/01 00:17:37;;;;;;;45.17;16.45;;;7.90;99.90;;;;;;4965668;28;20483;-65
2021/12/01 00:20:11;;;;;;;51.92;18.02;;;7.90;99.90;;;;;;4960800;28;20050;-65
2021/12/01 00:22:38;;;;;;;50.35;17.65;;;8.00;99.90;;;;;;4991317;28;20042;-65
2021/12/01 00:25:06;;;;;;;57.20;18.35;;;8.00;99.90;;;;;;4991936;28;20395;-66
2021/12/01 00:27:32;;;;;;;46.97;18.80;;;8.10;99.90;;;;;;4984666;28;20042;-66
2021/12/01 00:29:58;;;;;;;49.40;18.25;;;8.10;99.90;;;;;;4974181;28;20074;-66
2021/12/01 00:32:24;;;;;;;53.20;20.55;;;8.10;99.90;;;;;;4966622;28;20070;-66
2021/12/01 00:34:50;;;;;;;66.85;22.65;;;8.20;99.90;;;;;;4974190;28;20050;-65
2021/12/01 00:37:17;;;;;;;59.83;23.02;;;8.20;99.90;;;;;;4959225;28;20444;-65
2021/12/01 00:39:43;;;;;;;57.83;23.33;;;8.30;99.90;;;;;;4990834;28;20043;-66
2021/12/01 00:42:10;;;;;;;59.40;24.73;;;8.30;99.90;;;;;;4974085;28;20384;-65
2021/12/01 00:44:36;;;;;;;54.58;25.30;;;8.40;99.90;;;;;;4962494;28;20046;-65
2021/12/01 00:49:30;;;;;;;75.47;30.83;;;8.50;99.90;;;;;;4990076;28;20046;-65
2021/12/01 00:51:56;;;;;;;65.18;28.95;;;8.50;99.90;;;;;;4975162;28;20034;-66
2021/12/01 00:54:22;;;;;;;67.43;30.88;;;8.50;99.90;;;;;;4992583;28;20045;-66
2021/12/01 00:56:49;;;;;;;65.00;29.88;;;8.60;99.90;;;;;;4974093;28;20476;-65
2021/12/01 00:59:16;;;;;;;71.13;29.45;;;8.60;99.90;;;;;;4991593;28;20565;-66
2021/12/01 01:01:42;;;;;;;62.92;29.55;;;8.70;99.90;;;;;;4970481;28;20503;-65
2021/12/01 01:04:09;;;;;;;55.85;28.13;;;8.70;99.90;;;;;;4991362;28;20435;-65
2021/12/01 01:06:35;;;;;;;63.70;29.15;;;8.70;99.90;;;;;;4991981;28;20053;-65
2021/12/01 01:09:05;;;;;;;61.35;28.42;;;8.70;99.90;;;;;;4974013;28;20099;-65
2021/12/01 01:17:06;;;;;;;62.60;28.58;;;8.70;99.90;;;;;;4979291;28;20056;-65
2021/12/01 01:19:33;;;;;;;55.92;27.52;;;8.70;99.90;;;;;;4987653;28;20042;-66
2021/12/01 01:22:00;;;;;;;56.20;28.55;;;8.80;99.90;;;;;;4978461;28;20133;-66
2021/12/01 01:24:27;;;;;;;56.65;28.42;;;8.80;99.90;;;;;;4978252;28;20054;-65
2021/12/01 01:26:56;;;;;;;44.78;25.58;;;8.70;99.90;;;;;;4987095;28;20043;-65
2021/12/01 01:29:22;;;;;;;46.10;27.15;;;8.80;99.90;;;;;;4960444;28;20150;-65
2021/12/01 01:31:54;;;;;;;43.58;24.80;;;8.80;99.90;;;;;;4966111;28;20038;-65
2021/12/01 01:34:21;;;;;;;40.03;23.33;;;8.80;99.90;;;;;;4971148;28;20508;-65
2021/12/01 01:36:47;;;;;;;44.30;23.52;;;8.80;99.90;;;;;;4974156;28;20149;-66
2021/12/01 01:39:13;;;;;;;47.17;23.55;;;8.80;99.90;;;;;;4965171;28;20519;-65
2021/12/01 01:41:39;;;;;;;46.05;21.45;;;8.80;99.90;;;;;;4988169;28;20038;-65
2021/12/01 01:44:06;;;;;;;35.15;20.25;;;8.80;99.90;;;;;;4973030;28;20069;-65
2021/12/01 01:46:35;;;;;;;37.65;20.85;;;8.80;99.90;;;;;;4975967;28;20034;-66
2021/12/01 01:49:10;;;;;;;36.28;19.02;;;8.80;99.90;;;;;;4973575;28;20112;-66
2021/12/01 01:51:37;;;;;;;33.73;19.10;;;8.80;99.90;;;;;;4966666;28;20043;-66
2021/12/01 01:54:03;;;;;;;30.38;17.50;;;8.80;99.90;;;;;;4972697;28;20050;-65
2021/12/01 01:56:29;;;;;;;30.80;16.60;;;8.90;99.90;;;;;;4963070;28;20074;-65
2021/12/01 01:58:55;;;;;;;33.72;15.68;;;8.90;99.90;;;;;;4978046;28;20081;-65
2021/12/01 02:03:54;;;;;;;28.17;14.85;;;8.90;99.90;;;;;;4979154;28;20049;-65
2021/12/01 02:06:23;;;;;;;26.67;13.98;;;8.90;99.90;;;;;;4992345;28;20049;-65
2021/12/01 02:08:50;;;;;;;25.45;13.60;;;8.90;99.90;;;;;;4987983;28;20038;-66
2021/12/01 02:11:18;;;;;;;26.50;12.82;;;8.90;99.90;;;;;;4984128;28;20039;-66
2021/12/01 02:13:44;;;;;;;25.10;11.82;;;8.90;99.90;;;;;;4967680;28;20043;-66
2021/12/01 02:16:12;;;;;;;30.35;12.32;;;8.90;99.90;;;;;;4983551;28;20057;-66
2021/12/01 02:18:39;;;;;;;18.35;10.63;;;8.90;99.90;;;;;;4963246;28;20061;-66
2021/12/01 02:21:08;;;;;;;25.83;10.80;;;8.90;99.90;;;;;;4974078;28;20489;-66
2021/12/01 02:23:37;;;;;;;24.70;10.43;;;9.00;99.90;;;;;;4982301;28;20105;-66
2021/12/01 02:26:04;;;;;;;19.55;9.80;;;9.00;99.90;;;;;;4992886;28;20105;-66
2021/12/01 02:28:31;;;;;;;17.27;8.65;;;8.90;99.90;;;;;;4979014;28;20046;-66
2021/12/01 02:30:58;;;;;;;20.25;8.50;;;8.90;99.90;;;;;;4977926;28;20042;-66
2021/12/01 02:33:24;;;;;;;21.67;8.10;;;8.90;99.90;;;;;;4974951;28;20051;-66
2021/12/01 02:35:52;;;;;;;17.90;6.65;;;8.90;99.90;;;;;;4979564;28;20048;-66
2021/12/01 02:38:18;;;;;;;18.17;6.30;;;8.90;99.90;;;;;;4977995;28;20048;-66
2021/12/01 02:40:45;;;;;;;15.73;6.50;;;9.00;99.90;;;;;;4994900;28;20054;-65
2021/12/01 02:43:11;;;;;;;18.30;6.15;;;8.90;99.90;;;;;;4991797;28;20499;-65
2021/12/01 02:45:39;;;;;;;14.23;5.13;;;9.00;99.90;;;;;;4975455;28;20518;-64
2021/12/01 02:48:07;;;;;;;11.07;5.00;;;9.00;99.90;;;;;;4992706;28;20061;-64
2021/12/01 02:50:34;;;;;;;11.20;5.20;;;9.00;99.90;;;;;;4964828;28;20039;-64
2021/12/01 02:52:59;;;;;;;12.27;4.90;;;9.00;99.90;;;;;;4980535;28;20034;-65
2021/12/01 02:55:28;;;;;;;10.68;4.38;;;9.00;99.90;;;;;;4993881;28;20459;-64
2021/12/01 02:57:55;;;;;;;11.95;3.95;;;9.00;99.90;;;;;;4989937;28;20042;-64
2021/12/01 03:00:22;;;;;;;10.35;3.50;;;9.00;99.90;;;;;;4991859;28;20053;-64
2021/12/01 03:02:50;;;;;;;7.85;3.10;;;9.00;99.90;;;;;;4994198;28;20066;-64
2021/12/01 03:05:18;;;;;;;9.30;3.17;;;9.00;99.90;;;;;;4993390;28;20050;-65
2021/12/01 03:07:45;;;;;;;10.10;3.00;;;9.00;99.90;;;;;;4994743;28;20074;-65
2021/12/01 03:10:12;;;;;;;13.20;3.53;;;9.00;99.90;;;;;;4978627;28;20046;-65
2021/12/01 03:12:39;;;;;;;14.63;3.67;;;9.00;99.90;;;;;;4992955;28;20042;-65
2021/12/01 03:15:08;;;;;;;12.82;3.50;;;9.00;99.90;;;;;;4987404;28;20066;-65
2021/12/01 03:17:34;;;;;;;13.88;3.60;;;9.00;99.90;;;;;;4971040;28;20124;-65
2021/12/01 03:20:01;;;;;;;15.27;4.10;;;9.00;99.90;;;;;;4975571;28;20123;-65
2021/12/01 03:22:27;;;;;;;16.92;4.63;;;9.00;99.90;;;;;;4991650;28;20038;-65
2021/12/01 03:24:54;;;;;;;25.52;4.85;;;9.00;99.90;;;;;;4974602;28;20081;-65
2021/12/01 03:27:20;;;;;;;15.30;4.32;;;9.00;99.90;;;;;;4969247;28;20129;-65
2021/12/01 03:29:49;;;;;;;16.13;4.55;;;9.00;99.90;;;;;;4960575;28;20500;-65
2021/12/01 03:32:17;;;;;;;16.23;4.60;;;9.00;99.90;;;;;;4967634;28;20602;-65
2021/12/01 03:34:44;;;;;;;23.75;5.00;;;9.00;99.90;;;;;;4993516;28;20108;-66
2021/12/01 03:37:11;;;;;;;21.80;4.85;;;9.00;99.90;;;;;;4991285;28;20057;-65
2021/12/01 03:39:37;;;;;;;15.98;4.55;;;9.00;99.90;;;;;;4958720;28;20049;-64
2021/12/01 03:42:05;;;;;;;13.65;4.65;;;9.00;99.90;;;;;;4987479;28;20046;-63
2021/12/01 03:44:32;;;;;;;19.17;4.20;;;9.00;99.90;;;;;;4975604;28;20042;-64
2021/12/01 03:46:58;;;;;;;13.55;3.53;;;9.00;99.90;;;;;;4969375;28;20046;-64
2021/12/01 03:49:24;;;;;;;11.23;3.50;;;9.00;99.90;;;;;;4984445;28;20161;-64
2021/12/01 03:51:50;;;;;;;10.30;2.90;;;9.10;99.90;;;;;;4986565;28;20117;-64
2021/12/01 03:54:16;;;;;;;12.10;2.83;;;9.00;99.90;;;;;;4993402;28;20427;-64
2021/12/01 03:56:42;;;;;;;16.33;3.67;;;9.00;99.90;;;;;;4983719;28;20455;-64
2021/12/01 03:59:08;;;;;;;13.50;3.50;;;9.00;99.90;;;;;;4976154;28;20046;-64
2021/12/01 04:01:35;;;;;;;15.85;3.72;;;9.00;99.90;;;;;;4986727;28;20060;-63
2021/12/01 04:04:00;;;;;;;17.73;4.18;;;9.00;99.90;;;;;;4970243;28;20081;-64
2021/12/01 04:06:27;;;;;;;19.45;4.10;;;9.00;99.90;;;;;;4994025;28;20085;-64
2021/12/01 04:08:53;;;;;;;15.90;3.67;;;9.00;99.90;;;;;;4989497;28;20488;-64
2021/12/01 04:11:19;;;;;;;22.20;3.83;;;9.00;99.90;;;;;;4973917;28;20475;-64
2021/12/01 04:13:45;;;;;;;24.80;4.95;;;9.00;99.90;;;;;;4991209;28;20050;-64
2021/12/01 04:16:11;;;;;;;25.08;4.88;;;9.00;99.90;;;;;;4992318;28;20132;-64
2021/12/01 04:18:38;;;;;;;24.65;4.55;;;9.00;99.90;;;;;;4990237;28;20038;-63
2021/12/01 04:21:04;;;;;;;19.38;4.22;;;9.00;99.90;;;;;;4979419;28;20042;-64
2021/12/01 04:23:34;;;;;;;23.60;4.97;;;9.00;99.90;;;;;;4977348;28;20061;-64
2021/12/01 04:26:01;;;;;;;24.98;4.85;;;9.00;99.90;;;;;;4978535;28;20462;-64
2021/12/01 04:28:27;;;;;;;25.75;5.18;;;9.00;99.90;;;;;;4991328;28;20042;-64
2021/12/01 04:30:53;;;;;;;27.83;4.72;;;9.00;99.90;;;;;;4968728;28;20054;-64
2021/12/01 04:33:18;;;;;;;23.65;4.80;;;9.00;99.90;;;;;;4974224;28;20038;-64
2021/12/01 04:35:46;;;;;;;20.25;4.50;;;9.00;99.90;;;;;;4979897;28;20050;-64
2021/12/01 04:38:12;;;;;;;19.70;4.68;;;9.00;99.90;;;;;;4966274;28;20066;-64
2021/12/01 04:40:38;;;;;;;23.52;4.13;;;8.90;99.90;;;;;;4984452;28;20461;-63
2021/12/01 04:43:05;;;;;;;26.52;4.90;;;9.00;99.90;;;;;;4990523;28;20049;-64
2021/12/01 04:45:32;;;;;;;15.43;3.40;;;9.00;99.90;;;;;;4987912;28;20057;-64
2021/12/01 04:47:58;;;;;;;20.15;3.88;;;8.90;99.90;;;;;;4991563;28;20507;-64
2021/12/01 04:50:27;;;;;;;15.15;3.65;;;8.90;99.90;;;;;;4992474;28;20370;-64
2021/12/01 04:52:55;;;;;;;17.27;3.45;;;9.00;99.90;;;;;;4987500;28;20078;-64
2021/12/01 04:55:22;;;;;;;14.80;3.45;;;9.00;99.90;;;;;;4972825;28;20042;-64
2021/12/01 04:57:49;;;;;;;14.23;3.05;;;8.90;99.90;;;;;;4987524;28;20038;-64
2021/12/01 05:00:18;;;;;;;15.95;4.47;;;9.00;99.90;;;;;;4970345;28;20050;-63
2021/12/01 05:02:44;;;;;;;16.35;3.53;;;9.00;99.90;;;;;;4973839;28;20560;-64
2021/12/01 05:05:10;;;;;;;13.93;3.63;;;9.00;99.90;;;;;;4970590;28;20038;-63
2021/12/01 05:07:35;;;;;;;10.82;3.28;;;9.00;99.90;;;;;;4961719;28;20100;-63
2021/12/01 05:10:01;;;;;;;12.07;3.40;;;9.00;99.90;;;;;;4973297;28;20130;-64
2021/12/01 05:12:27;;;;;;;7.85;3.40;;;9.00;99.90;;;;;;4985970;28;20536;-66
2021/12/01 05:14:53;;;;;;;12.52;3.95;;;9.00;99.90;;;;;;4961516;28;20045;-66
2021/12/01 05:17:20;;;;;;;10.10;3.72;;;9.00;99.90;;;;;;4985653;28;20039;-67
2021/12/01 05:19:47;;;;;;;10.05;3.65;;;9.00;99.90;;;;;;4979357;28;20057;-64
2021/12/01 05:22:14;;;;;;;12.13;3.80;;;9.00;99.90;;;;;;4965121;28;20411;-64
2021/12/01 05:24:39;;;;;;;8.23;3.78;;;9.00;99.90;;;;;;4969725;28;20065;-65
2021/12/01 05:27:06;;;;;;;9.82;3.65;;;8.90;99.90;;;;;;4978320;28;20050;-65
2021/12/01 05:29:31;;;;;;;6.18;3.58;;;9.00;99.90;;;;;;4965388;28;20098;-65
2021/12/01 05:31:57;;;;;;;7.15;3.45;;;9.00;99.90;;;;;;4987253;28;20042;-66
2021/12/01 05:34:24;;;;;;;5.20;2.80;;;9.00;99.90;;;;;;4980408;28;20506;-66
2021/12/01 05:36:51;;;;;;;5.75;3.35;;;9.00;99.90;;;;;;4989834;28;20074;-65
2021/12/01 05:39:17;;;;;;;5.60;3.25;;;9.00;99.90;;;;;;4985900;28;20054;-65
2021/12/01 05:41:44;;;;;;;5.70;3.00;;;9.00;99.90;;;;;;4981761;28;20112;-65
2021/12/01 05:44:10;;;;;;;4.60;2.90;;;9.00;99.90;;;;;;4984878;28;20035;-65
2021/12/01 05:46:36;;;;;;;4.22;2.60;;;9.00;99.90;;;;;;4973108;28;20053;-66
2021/12/01 05:49:03;;;;;;;4.38;2.55;;;9.00;99.90;;;;;;4972116;28;20046;-65
2021/12/01 05:51:29;;;;;;;3.70;2.20;;;8.90;99.90;;;;;;4990120;28;20050;-65
2021/12/01 05:53:56;;;;;;;3.67;2.20;;;8.90;99.90;;;;;;4985384;28;20039;-65
2021/12/01 05:56:21;;;;;;;3.90;1.70;;;8.90;99.90;;;;;;4989303;28;20113;-65
2021/12/01 05:58:47;;;;;;;6.03;2.00;;;8.80;99.90;;;;;;4982010;28;20038;-65
2021/12/01 06:01:13;;;;;;;3.25;1.67;;;8.90;99.90;;;;;;4992288;28;20039;-65
2021/12/01 06:03:40;;;;;;;3.20;1.75;;;8.80;99.90;;;;;;4968209;28;20042;-66
2021/12/01 06:06:06;;;;;;;2.83;1.65;;;8.80;99.90;;;;;;4983697;28;20575;-65
2021/12/01 06:08:32;;;;;;;3.22;1.65;;;8.80;99.90;;;;;;4962681;28;20054;-65
2021/12/01 06:10:58;;;;;;;3.00;1.70;;;8.80;99.90;;;;;;4982739;28;20054;-65
2021/12/01 06:13:25;;;;;;;3.97;2.00;;;8.70;99.90;;;;;;4983471;28;20244;-67
2021/12/01 06:15:51;;;;;;;5.35;2.20;;;8.80;99.90;;;;;;4973145;28;20045;-65
2021/12/01 06:18:19;;;;;;;6.47;2.40;;;8.70;99.90;;;;;;4983359;28;20049;-64
2021/12/01 06:20:45;;;;;;;4.50;2.42;;;8.70;99.90;;;;;;4984179;28;20058;-65
2021/12/01 06:23:12;;;;;;;4.38;2.47;;;8.70;99.90;;;;;;4967313;28;20109;-65
2021/12/01 06:25:38;;;;;;;3.92;2.40;;;8.70;99.90;;;;;;4979984;28;20051;-65
2021/12/01 06:28:04;;;;;;;3.80;2.30;;;8.60;99.90;;;;;;4952812;28;20656;-66
2021/12/01 06:30:34;;;;;;;3.80;2.60;;;8.60;99.90;;;;;;4964989;28;20550;-66
2021/12/01 06:33:00;;;;;;;4.72;2.95;;;8.60;99.90;;;;;;4981986;28;21806;-65
2021/12/01 06:35:26;;;;;;;3.97;2.65;;;8.60;99.90;;;;;;4980920;28;20042;-67
2021/12/01 06:37:54;;;;;;;6.35;2.92;;;8.60;99.90;;;;;;4983889;28;20054;-65
2021/12/01 06:40:23;;;;;;;5.78;3.17;;;8.60;99.90;;;;;;4984462;28;20042;-65
2021/12/01 06:42:49;;;;;;;5.28;3.22;;;8.60;99.90;;;;;;4978194;28;20507;-66
2021/12/01 06:45:16;;;;;;;5.95;4.07;;;8.60;99.90;;;;;;4991925;28;20054;-64
2021/12/01 06:47:44;;;;;;;6.05;4.03;;;8.60;99.90;;;;;;5009797;28;20038;-63
2021/12/01 06:50:10;;;;;;;5.57;3.63;;;8.50;99.90;;;;;;4977234;28;20049;-64
2021/12/01 06:52:38;;;;;;;5.13;3.38;;;8.60;99.90;;;;;;4994413;28;20148;-66
2021/12/01 06:55:07;;;;;;;5.90;3.10;;;8.60;99.90;;;;;;4977943;28;20406;-64
2021/12/01 06:57:33;;;;;;;4.30;2.85;;;8.60;99.90;;;;;;4974305;28;20494;-63
2021/12/01 07:00:00;;;;;;;5.07;3.15;;;8.50;99.90;;;;;;4978273;28;20094;-63
2021/12/01 07:02:26;;;;;;;5.95;3.25;;;8.50;99.90;;;;;;4993075;28;20046;-65
2021/12/01 07:04:53;;;;;;;4.93;3.05;;;8.50;99.90;;;;;;4986657;28;20041;-66
2021/12/01 07:07:18;;;;;;;6.65;3.20;;;8.50;99.90;;;;;;4973779;28;20054;-64
2021/12/01 07:09:49;;;;;;;6.60;3.55;;;8.50;99.90;;;;;;4987482;28;20185;-65
2021/12/01 07:12:17;;;;;;;10.48;3.70;;;8.50;99.90;;;;;;4985450;28;20050;-65
2021/12/01 07:14:43;;;;;;;6.22;3.42;;;8.50;99.90;;;;;;4968832;28;20050;-65
2021/12/01 07:17:09;;;;;;;6.18;4.10;;;8.50;99.90;;;;;;4994148;28;20097;-76
2021/12/01 07:19:36;;;;;;;5.65;3.83;;;8.50;99.90;;;;;;4993954;28;20038;-65
2021/12/01 07:22:03;;;;;;;6.50;4.03;;;8.50;99.90;;;;;;4995009;28;20054;-65
2021/12/01 07:24:32;;;;;;;5.97;4.05;;;8.50;99.90;;;;;;4977751;28;20501;-63
2021/12/01 07:26:58;;;;;;;6.68;4.20;;;8.50;99.90;;;;;;4993462;28;20165;-64
2021/12/01 07:29:25;;;;;;;7.20;4.35;;;8.50;99.90;;;;;;4994609;28;20128;-63
2021/12/01 07:31:52;;;;;;;9.98;5.43;;;8.50;99.90;;;;;;4974455;28;20042;-64
2021/12/01 07:34:17;;;;;;;11.52;5.65;;;8.50;99.90;;;;;;4976914;28;20115;-65
2021/12/01 07:36:43;;;;;;;11.73;5.78;;;8.50;99.90;;;;;;4975623;28;20081;-64
2021/12/01 07:39:09;;;;;;;8.73;5.50;;;8.50;99.90;;;;;;4993568;28;20479;-63
2021/12/01 07:41:35;;;;;;;7.95;5.38;;;8.50;99.90;;;;;;4994213;28;20046;-65
2021/12/01 07:44:01;;;;;;;11.38;5.38;;;8.50;99.90;;;;;;4993689;28;20038;-64
2021/12/01 07:46:27;;;;;;;9.95;4.85;;;8.50;99.90;;;;;;4993995;28;20039;-65
2021/12/01 07:48:52;;;;;;;8.55;4.70;;;8.50;99.90;;;;;;4989890;28;20109;-64
2021/12/01 07:51:18;;;;;;;9.30;5.53;;;8.50;99.90;;;;;;4993912;28;20046;-64
2021/12/01 07:53:44;;;;;;;9.18;5.90;;;8.60;99.90;;;;;;4994109;28;20084;-63
2021/12/01 07:56:12;;;;;;;10.27;5.60;;;8.60;99.90;;;;;;4994277;28;20177;-64
2021/12/01 07:58:38;;;;;;;13.80;6.15;;;8.60;99.90;;;;;;4997523;28;20112;-66
2021/12/01 08:01:04;;;;;;;14.15;6.05;;;8.60;99.90;;;;;;4978169;28;20133;-63
2021/12/01 08:03:29;;;;;;;16.70;6.57;;;8.60;99.90;;;;;;4993550;28;20476;-64
2021/12/01 08:05:55;;;;;;;12.95;6.22;;;8.60;99.90;;;;;;4989885;28;20053;-64
2021/12/01 08:08:21;;;;;;;15.07;6.25;;;8.60;99.90;;;;;;4978484;28;20120;-64
2021/12/01 08:10:47;;;;;;;15.90;6.40;;;8.60;99.90;;;;;;4977824;28;20048;-64
2021/12/01 08:13:13;;;;;;;13.10;5.07;;;8.60;99.90;;;;;;4993795;28;20059;-63
2021/12/01 08:15:39;;;;;;;10.73;5.05;;;8.60;99.90;;;;;;4993247;28;20451;-64
2021/12/01 08:18:05;;;;;;;14.38;5.35;;;8.60;99.90;;;;;;4993895;28;20073;-63
2021/12/01 08:20:31;;;;;;;11.73;5.28;;;8.60;99.90;;;;;;4977841;28;20100;-65
2021/12/01 08:22:57;;;;;;;12.20;4.97;;;8.70;99.90;;;;;;4977946;28;20050;-63
2021/12/01 08:25:23;;;;;;;13.80;4.78;;;8.70;99.90;;;;;;4966499;28;20540;-65
2021/12/01 08:27:49;;;;;;;9.60;3.90;;;8.70;99.90;;;;;;4962938;28;20384;-66
2021/12/01 08:30:15;;;;;;;11.02;4.38;;;8.70;99.90;;;;;;4976834;28;20320;-65
2021/12/01 08:32:45;;;;;;;10.65;4.70;;;8.70;99.90;;;;;;4975503;28;20128;-64
2021/12/01 08:35:12;;;;;;;9.77;3.58;;;8.60;99.90;;;;;;4974850;28;20058;-64
2021/12/01 08:37:39;;;;;;;11.63;3.03;;;8.50;99.90;;;;;;4961090;28;20045;-63
2021/12/01 08:40:05;;;;;;;10.20;2.45;;;8.50;99.90;;;;;;4974137;28;20698;-65
2021/12/01 08:42:33;;;;;;;12.55;2.80;;;8.40;99.90;;;;;;4976810;28;20101;-65
2021/12/01 08:45:00;;;;;;;10.45;2.65;;;8.30;99.90;;;;;;4977208;28;20042;-65
2021/12/01 08:47:26;;;;;;;13.32;3.17;;;8.30;99.90;;;;;;4976913;28;20046;-64
2021/12/01 08:49:52;;;;;;;11.75;3.03;;;8.20;99.90;;;;;;4976015;28;20042;-65
2021/12/01 08:52:18;;;;;;;11.40;2.55;;;8.20;99.90;;;;;;4976811;28;20038;-64
2021/12/01 08:54:44;;;;;;;13.52;3.33;;;8.20;99.90;;;;;;4976346;28;20042;-64
2021/12/01 08:57:10;;;;;;;21.05;3.55;;;8.20;99.90;;;;;;4977051;28;20046;-64
2021/12/01 08:59:37;;;;;;;15.20;3.38;;;8.20;99.90;;;;;;4975224;28;20447;-62
2021/12/01 09:02:03;;;;;;;14.90;3.35;;;8.20;99.90;;;;;;4990886;28;20049;-65
2021/12/01 09:04:29;;;;;;;12.57;2.70;;;8.10;99.90;;;;;;4976147;28;20691;-65
2021/12/01 09:06:56;;;;;;;12.32;3.30;;;8.10;99.90;;;;;;4963103;28;20057;-66
2021/12/01 09:09:22;;;;;;;15.48;2.72;;;8.10;99.90;;;;;;4946964;28;20052;-65
2021/12/01 09:11:52;;;;;;;10.32;2.58;;;8.10;99.90;;;;;;4973327;28;20050;-65
2021/12/01 09:14:23;;;;;;;12.18;2.78;;;8.10;99.90;;;;;;4957164;28;20548;-66
2021/12/01 09:16:50;;;;;;;9.73;2.05;;;8.10;99.90;;;;;;4969438;28;20140;-65
2021/12/01 09:19:16;;;;;;;10.90;2.67;;;8.10;99.90;;;;;;4980492;28;20607;-64
2021/12/01 09:21:42;;;;;;;14.63;2.70;;;8.00;99.90;;;;;;4976509;28;20128;-64
2021/12/01 09:24:09;;;;;;;11.93;2.45;;;8.00;99.90;;;;;;4982449;28;20046;-64
2021/12/01 09:26:35;;;;;;;11.13;2.30;;;8.00;99.90;;;;;;4992697;28;20050;-65
2021/12/01 09:29:02;;;;;;;12.18;2.45;;;8.10;99.90;;;;;;4976459;28;20042;-64
2021/12/01 09:31:28;;;;;;;10.50;2.22;;;8.00;99.90;;;;;;4992371;28;20498;-64
2021/12/01 09:33:54;;;;;;;13.27;2.45;;;8.00;99.90;;;;;;4989342;28;20051;-64
2021/12/01 09:36:20;;;;;;;11.32;2.35;;;8.00;99.90;;;;;;4975140;28;20038;-65
2021/12/01 09:38:46;;;;;;;12.55;2.65;;;8.00;99.90;;;;;;4972902;28;20671;-64
2021/12/01 09:41:13;;;;;;;13.70;2.40;;;8.00;99.90;;;;;;4975737;28;20527;-65
2021/12/01 09:43:39;;;;;;;10.02;2.53;;;8.00;99.90;;;;;;4975543;28;20048;-66
2021/12/01 09:46:08;;;;;;;12.55;2.40;;;8.10;99.90;;;;;;4993029;28;20077;-68
2021/12/01 09:48:36;;;;;;;18.38;3.05;;;8.10;99.90;;;;;;4990376;28;20059;-65
2021/12/01 09:51:02;;;;;;;15.05;2.95;;;8.10;99.90;;;;;;4983379;28;20089;-65
2021/12/01 09:53:28;;;;;;;14.50;2.60;;;8.10;99.90;;;;;;4960329;28;20472;-67
2021/12/01 09:55:54;;;;;;;15.48;2.95;;;8.20;99.90;;;;;;4970489;28;20072;-65
2021/12/01 09:58:24;;;;;;;16.33;2.88;;;8.20;99.90;;;;;;4986838;28;20477;-66
2021/12/01 10:00:53;;;;;;;14.93;3.08;;;8.20;99.90;;;;;;4990503;28;20065;-65
2021/12/01 10:03:20;;;;;;;17.92;2.70;;;8.20;99.90;;;;;;4975316;28;20069;-65
2021/12/01 10:05:49;;;;;;;11.88;2.50;;;8.30;99.90;;;;;;4971680;28;20077;-65
2021/12/01 10:08:19;;;;;;;16.30;3.00;;;8.30;99.90;;;;;;4983993;28;20645;-65
2021/12/01 10:10:46;;;;;;;15.65;2.72;;;8.20;99.90;;;;;;4986035;28;20042;-65
2021/12/01 10:13:12;;;;;;;15.65;3.10;;;8.20;99.90;;;;;;4991024;28;20510;-65
2021/12/01 10:15:37;;;;;;;11.65;2.80;;;8.10;99.90;;;;;;4991579;28;20042;-65
2021/12/01 10:18:17;;;;;;;16.55;3.03;;;8.10;99.90;;;;;;4989503;28;20038;-67
2021/12/01 10:20:55;;;;;;;11.98;2.67;;;8.20;99.90;;;;;;4973904;28;20105;-66
2021/12/01 10:23:21;;;;;;;11.50;2.78;;;8.30;99.90;;;;;;4991007;28;20149;-66
2021/12/01 10:25:47;;;;;;;17.90;3.22;;;8.30;99.90;;;;;;4990999;28;20077;-66
2021/12/01 10:28:36;;;;;;;14.40;3.13;;;8.30;99.90;;;;;;4969292;28;20104;-64
2021/12/01 10:31:02;;;;;;;18.02;3.40;;;8.30;99.90;;;;;;4992914;28;20048;-65
2021/12/01 10:33:29;;;;;;;18.10;3.60;;;8.30;99.90;;;;;;4973604;28;20042;-66
2021/12/01 10:36:01;;;;;;;15.23;3.33;;;8.30;99.90;;;;;;4990613;28;20046;-64
2021/12/01 10:38:32;;;;;;;21.63;4.15;;;8.30;99.90;;;;;;4991489;28;20438;-65
2021/12/01 10:41:08;;;;;;;13.43;2.72;;;8.40;99.90;;;;;;4972114;28;20043;-64
2021/12/01 10:43:44;;;;;;;13.20;2.45;;;8.70;99.90;;;;;;4990742;28;20073;-65
2021/12/01 10:46:18;;;;;;;12.73;3.42;;;8.60;99.90;;;;;;4987802;28;20042;-65
2021/12/01 10:49:01;;;;;;;13.48;2.45;;;8.50;99.90;;;;;;4992079;28;20054;-65
2021/12/01 10:51:39;;;;;;;11.30;2.17;;;8.40;99.90;;;;;;4994308;28;20411;-65
2021/12/01 10:54:18;;;;;;;13.20;2.55;;;8.30;99.90;;;;;;4975060;28;20042;-65
2021/12/01 10:56:44;;;;;;;17.02;3.72;;;8.30;99.90;;;;;;4991513;28;20042;-67
2021/12/01 10:59:16;;;;;;;16.38;2.90;;;8.30;99.90;;;;;;4976737;28;20058;-66
2021/12/01 11:01:45;;;;;;;17.33;3.50;;;8.50;99.90;;;;;;4978588;28;20089;-67
2021/12/01 11:04:11;;;;;;;15.52;3.67;;;8.40;99.90;;;;;;4978180;28;20043;-65
2021/12/01 11:06:42;;;;;;;18.38;4.45;;;8.40;99.90;;;;;;4978512;28;20383;-64
2021/12/01 11:09:08;;;;;;;18.35;3.70;;;8.40;99.90;;;;;;4978643;28;20050;-65
2021/12/01 11:11:45;;;;;;;23.10;4.18;;;8.50;99.90;;;;;;4978097;28;20048;-65
2021/12/01 11:14:17;;;;;;;22.02;4.28;;;8.60;99.90;;;;;;4994112;28;20046;-65
2021/12/01 11:16:45;;;;;;;25.17;4.88;;;8.60;99.90;;;;;;4993072;28;20660;-65
2021/12/01 11:19:12;;;;;;;19.13;4.25;;;8.60;99.90;;;;;;4994554;28;20043;-65
2021/12/01 11:21:39;;;;;;;21.50;5.07;;;8.50;99.90;;;;;;4993347;28;20044;-65
2021/12/01 11:24:11;;;;;;;22.92;4.57;;;8.40;99.90;;;;;;4977611;28;20058;-65
2021/12/01 11:26:40;;;;;;;21.70;4.40;;;8.30;99.90;;;;;;4994558;28;20060;-65
2021/12/01 11:29:09;;;;;;;22.40;4.55;;;8.10;99.90;;;;;;4994066;28;20042;-65
2021/12/01 11:31:39;;;;;;;26.40;5.25;;;8.10;99.90;;;;;;4994464;28;20488;-65
2021/12/01 11:34:16;;;;;;;28.27;4.88;;;8.00;99.90;;;;;;4993863;28;20088;-65
2021/12/01 11:36:51;;;;;;;23.70;4.70;;;7.80;99.90;;;;;;4994680;28;20081;-64
2021/12/01 11:39:22;;;;;;;25.93;4.47;;;7.70;99.90;;;;;;4995031;28;20490;-63
2021/12/01 11:41:50;;;;;;;24.13;5.18;;;7.70;99.90;;;;;;4994905;28;20535;-65
2021/12/01 11:44:18;;;;;;;21.58;4.85;;;7.70;99.90;;;;;;4984006;28;20542;-63
2021/12/01 11:46:45;;;;;;;17.40;4.32;;;7.60;99.90;;;;;;4956251;28;20131;-65
2021/12/01 11:49:13;;;;;;;23.77;5.07;;;7.60;99.90;;;;;;4977972;28;20042;-63
2021/12/01 11:51:58;;;;;;;26.25;4.53;;;7.50;99.90;;;;;;4959298;28;20039;-63
2021/12/01 11:59:15;;;;;;;22.17;4.13;;;7.40;99.90;;;;;;4974055;28;20511;-64
2021/12/01 12:01:42;;;;;;;27.08;5.32;;;7.40;99.90;;;;;;4991498;28;20050;-63
2021/12/01 12:04:10;;;;;;;24.90;4.47;;;7.40;99.90;;;;;;4975707;28;20069;-64
2021/12/01 12:06:43;;;;;;;24.92;5.25;;;7.40;99.90;;;;;;4972014;28;20038;-63
2021/12/01 12:09:16;;;;;;;22.08;4.03;;;7.40;99.90;;;;;;4957056;28;20484;-64
2021/12/01 12:11:46;;;;;;;26.90;5.22;;;7.40;99.90;;;;;;4979274;28;20061;-63
2021/12/01 12:14:12;;;;;;;23.10;4.80;;;7.40;99.90;;;;;;4989317;28;20045;-63
2021/12/01 12:16:39;;;;;;;19.13;4.50;;;7.40;99.90;;;;;;4984620;28;20050;-64
2021/12/01 12:19:05;;;;;;;20.70;3.70;;;7.40;99.90;;;;;;4984540;28;20481;-64
2021/12/01 12:21:52;;;;;;;20.42;3.83;;;7.40;99.90;;;;;;4975705;28;20645;-64
2021/12/01 12:24:22;;;;;;;20.85;3.72;;;7.40;99.90;;;;;;4986830;28;20042;-64
2021/12/01 12:26:57;;;;;;;16.45;3.63;;;7.40;99.90;;;;;;4986787;28;20557;-64
2021/12/01 12:29:26;;;;;;;17.52;3.78;;;7.40;99.90;;;;;;4971615;28;20126;-64
2021/12/01 12:32:13;;;;;;;15.02;3.78;;;7.40;99.90;;;;;;4956605;28;20047;-65
2021/12/01 12:35:07;;;;;;;12.88;3.00;;;7.40;99.90;;;;;;4991509;28;20379;-64
2021/12/01 12:37:35;;;;;;;15.90;4.03;;;7.30;99.90;;;;;;4989801;28;20534;-64
2021/12/01 12:40:30;;;;;;;18.95;5.03;;;7.20;99.90;;;;;;4974179;28;21626;-64
2021/12/01 12:43:13;;;;;;;21.17;5.50;;;7.10;99.90;;;;;;4990396;28;20104;-65
2021/12/01 12:45:42;;;;;;;26.55;5.50;;;7.00;99.90;;;;;;4978559;28;20364;-64
2021/12/01 12:48:32;;;;;;;23.52;6.60;;;6.90;99.90;;;;;;4973873;28;20422;-66
2021/12/01 12:51:19;;;;;;;27.83;6.13;;;6.90;99.90;;;;;;4980959;28;20396;-65
2021/12/01 12:54:04;;;;;;;20.88;4.80;;;6.90;99.90;;;;;;4975411;28;20053;-64
2021/12/01 12:56:43;;;;;;;21.80;4.30;;;6.80;99.90;;;;;;4968002;28;20045;-65
2021/12/01 12:59:22;;;;;;;18.17;4.07;;;6.70;99.90;;;;;;4974981;28;20412;-65
2021/12/01 13:01:51;;;;;;;19.30;3.78;;;6.60;99.90;;;;;;4987331;28;20129;-65
2021/12/01 13:07:32;;;;;;;22.38;4.55;;;6.60;99.90;;;;;;4991671;28;20464;-64
2021/12/01 13:10:25;;;;;;;19.48;4.20;;;6.60;99.90;;;;;;4990557;28;20112;-65